sensor_id;sensor_type;location;lat;lon;timestamp;pressure;altitude;pressure_sealevel;temperature;humidity
46946;BME280;32679;40.810;14.498;2023-03-04T00:01:48;99756.66;;;9.08;82.74
46946;BME280;32679;40.810;14.498;2023-03-04T00:04:16;99757.75;;;9.04;83.19
46946;BME280;32679;40.810;14.498;2023-03-04T00:06:42;99760.03;;;9.17;83.72
46946;BME280;32679;40.810;14.498;2023-03-04T00:09:07;99756.75;;;9.12;83.88
46946;BME280;32679;40.810;14.498;2023-03-04T00:11:33;99749.59;;;9.11;84.57
46946;BME280;32679;40.810;14.498;2023-03-04T00:13:59;99756.88;;;9.19;85.78
46946;BME280;32679;40.810;14.498;2023-03-04T00:16:26;99747.53;;;9.08;85.71
46946;BME280;32679;40.810;14.498;2023-03-04T00:18:55;99748.13;;;9.17;83.97
46946;BME280;32679;40.810;14.498;2023-03-04T00:21:21;99750.59;;;9.03;83.93
46946;BME280;32679;40.810;14.498;2023-03-04T00:23:47;99747.97;;;9.10;82.59
46946;BME280;32679;40.810;14.498;2023-03-04T00:26:13;99747.53;;;9.08;82.48
46946;BME280;32679;40.810;14.498;2023-03-04T00:28:39;99750.16;;;9.01;84.37
46946;BME280;32679;40.810;14.498;2023-03-04T00:31:05;99737.44;;;9.00;85.19
46946;BME280;32679;40.810;14.498;2023-03-04T00:33:31;99753.50;;;9.10;79.09
46946;BME280;32679;40.810;14.498;2023-03-04T00:35:57;99748.19;;;9.21;78.64
46946;BME280;32679;40.810;14.498;2023-03-04T00:38:22;99740.84;;;9.28;75.86
46946;BME280;32679;40.810;14.498;2023-03-04T00:40:51;99739.22;;;9.27;77.26
46946;BME280;32679;40.810;14.498;2023-03-04T00:43:17;99733.69;;;9.27;77.23
46946;BME280;32679;40.810;14.498;2023-03-04T00:45:42;99723.22;;;9.21;79.26
46946;BME280;32679;40.810;14.498;2023-03-04T00:48:08;99729.13;;;9.19;80.57
46946;BME280;32679;40.810;14.498;2023-03-04T00:50:33;99731.63;;;9.24;80.44
46946;BME280;32679;40.810;14.498;2023-03-04T00:52:59;99734.81;;;9.26;80.35
46946;BME280;32679;40.810;14.498;2023-03-04T00:55:26;99727.97;;;9.20;78.14
46946;BME280;32679;40.810;14.498;2023-03-04T00:57:51;99732.34;;;9.21;77.69
46946;BME280;32679;40.810;14.498;2023-03-04T01:00:17;99722.69;;;9.15;78.40
46946;BME280;32679;40.810;14.498;2023-03-04T01:02:43;99725.28;;;9.24;77.68
46946;BME280;32679;40.810;14.498;2023-03-04T01:05:08;99723.81;;;9.30;76.38
46946;BME280;32679;40.810;14.498;2023-03-04T01:07:35;99715.09;;;9.31;76.37
46946;BME280;32679;40.810;14.498;2023-03-04T01:10:04;99719.81;;;9.27;76.72
46946;BME280;32679;40.810;14.498;2023-03-04T01:12:30;99723.13;;;9.36;75.99
46946;BME280;32679;40.810;14.498;2023-03-04T01:14:58;99704.88;;;9.35;75.15
46946;BME280;32679;40.810;14.498;2023-03-04T01:17:24;99711.19;;;9.32;75.38
46946;BME280;32679;40.810;14.498;2023-03-04T01:19:49;99710.44;;;9.35;75.96
46946;BME280;32679;40.810;14.498;2023-03-04T01:22:17;99717.06;;;9.31;75.64
46946;BME280;32679;40.810;14.498;2023-03-04T01:24:43;99708.81;;;9.34;75.44
46946;BME280;32679;40.810;14.498;2023-03-04T01:27:11;99706.06;;;9.34;74.58
46946;BME280;32679;40.810;14.498;2023-03-04T01:29:37;99709.72;;;9.38;74.97
46946;BME280;32679;40.810;14.498;2023-03-04T01:32:03;99697.13;;;9.44;74.07
46946;BME280;32679;40.810;14.498;2023-03-04T01:34:28;99685.16;;;9.40;73.11
46946;BME280;32679;40.810;14.498;2023-03-04T01:36:54;99686.91;;;9.49;73.18
46946;BME280;32679;40.810;14.498;2023-03-04T01:39:20;99679.59;;;9.40;73.89
46946;BME280;32679;40.810;14.498;2023-03-04T01:41:45;99686.16;;;9.52;72.33
46946;BME280;32679;40.810;14.498;2023-03-04T01:44:13;99705.28;;;9.57;71.35
46946;BME280;32679;40.810;14.498;2023-03-04T01:46:43;99683.06;;;9.57;71.87
46946;BME280;32679;40.810;14.498;2023-03-04T01:49:13;99681.47;;;9.56;72.62
46946;BME280;32679;40.810;14.498;2023-03-04T01:51:45;99679.00;;;9.51;71.75
46946;BME280;32679;40.810;14.498;2023-03-04T01:54:13;99691.34;;;9.53;72.77
46946;BME280;32679;40.810;14.498;2023-03-04T01:56:43;99687.03;;;9.56;73.17
46946;BME280;32679;40.810;14.498;2023-03-04T01:59:13;99686.16;;;9.52;72.15
46946;BME280;32679;40.810;14.498;2023-03-04T02:01:46;99684.03;;;9.64;71.36
46946;BME280;32679;40.810;14.498;2023-03-04T02:04:12;99666.28;;;9.50;72.82
46946;BME280;32679;40.810;14.498;2023-03-04T02:06:39;99675.91;;;9.56;72.02
46946;BME280;32679;40.810;14.498;2023-03-04T02:09:06;99669.13;;;9.53;72.88
46946;BME280;32679;40.810;14.498;2023-03-04T02:11:32;99671.34;;;9.44;73.02
46946;BME280;32679;40.810;14.498;2023-03-04T02:13:58;99658.25;;;9.44;73.86
46946;BME280;32679;40.810;14.498;2023-03-04T02:16:25;99659.84;;;9.45;73.06
46946;BME280;32679;40.810;14.498;2023-03-04T02:18:53;99653.72;;;9.36;74.73
46946;BME280;32679;40.810;14.498;2023-03-04T02:21:28;99644.09;;;9.30;75.42
46946;BME280;32679;40.810;14.498;2023-03-04T02:24:12;99656.50;;;9.36;75.62
46946;BME280;32679;40.810;14.498;2023-03-04T02:26:40;99646.88;;;9.30;75.94
46946;BME280;32679;40.810;14.498;2023-03-04T02:29:09;99654.78;;;9.28;75.54
46946;BME280;32679;40.810;14.498;2023-03-04T02:31:37;99664.56;;;9.22;76.23
46946;BME280;32679;40.810;14.498;2023-03-04T02:34:14;99656.25;;;9.22;76.28
46946;BME280;32679;40.810;14.498;2023-03-04T02:36:41;99649.44;;;9.19;75.95
46946;BME280;32679;40.810;14.498;2023-03-04T02:39:22;99667.94;;;9.12;77.27
46946;BME280;32679;40.810;14.498;2023-03-04T02:41:51;99661.06;;;9.06;77.37
46946;BME280;32679;40.810;14.498;2023-03-04T02:44:26;99662.22;;;9.05;78.00
46946;BME280;32679;40.810;14.498;2023-03-04T02:46:54;99649.50;;;9.04;78.54
46946;BME280;32679;40.810;14.498;2023-03-04T02:49:20;99660.19;;;9.02;79.31
46946;BME280;32679;40.810;14.498;2023-03-04T02:51:57;99660.84;;;8.95;80.92
46946;BME280;32679;40.810;14.498;2023-03-04T02:54:24;99658.00;;;8.91;81.21
46946;BME280;32679;40.810;14.498;2023-03-04T02:56:56;99660.47;;;8.97;81.76
46946;BME280;32679;40.810;14.498;2023-03-04T02:59:22;99657.91;;;8.88;82.21
46946;BME280;32679;40.810;14.498;2023-03-04T03:01:48;99665.16;;;8.92;81.66
46946;BME280;32679;40.810;14.498;2023-03-04T03:04:14;99666.47;;;8.99;80.72
46946;BME280;32679;40.810;14.498;2023-03-04T03:06:40;99668.44;;;8.98;80.29
46946;BME280;32679;40.810;14.498;2023-03-04T03:09:06;99671.66;;;9.00;80.56
46946;BME280;32679;40.810;14.498;2023-03-04T03:11:32;99672.28;;;8.93;80.88
46946;BME280;32679;40.810;14.498;2023-03-04T03:13:58;99667.50;;;8.90;81.41
46946;BME280;32679;40.810;14.498;2023-03-04T03:16:24;99665.00;;;8.85;81.24
46946;BME280;32679;40.810;14.498;2023-03-04T03:18:50;99691.28;;;8.91;82.40
46946;BME280;32679;40.810;14.498;2023-03-04T03:21:15;99675.88;;;8.94;81.66
46946;BME280;32679;40.810;14.498;2023-03-04T03:23:41;99669.91;;;8.92;81.87
46946;BME280;32679;40.810;14.498;2023-03-04T03:26:07;99670.84;;;9.00;81.53
46946;BME280;32679;40.810;14.498;2023-03-04T03:28:33;99675.34;;;8.88;81.68
46946;BME280;32679;40.810;14.498;2023-03-04T03:30:58;99682.09;;;9.07;79.17
46946;BME280;32679;40.810;14.498;2023-03-04T03:33:24;99674.78;;;8.99;79.68
46946;BME280;32679;40.810;14.498;2023-03-04T03:35:49;99682.81;;;9.04;79.66
46946;BME280;32679;40.810;14.498;2023-03-04T03:38:15;99689.16;;;9.04;79.01
46946;BME280;32679;40.810;14.498;2023-03-04T03:40:40;99674.13;;;9.05;79.38
46946;BME280;32679;40.810;14.498;2023-03-04T03:43:05;99684.19;;;8.94;79.65
46946;BME280;32679;40.810;14.498;2023-03-04T03:45:31;99681.94;;;9.00;79.79
46946;BME280;32679;40.810;14.498;2023-03-04T03:47:57;99670.19;;;9.06;78.40
46946;BME280;32679;40.810;14.498;2023-03-04T03:50:22;99679.25;;;9.03;79.12
46946;BME280;32679;40.810;14.498;2023-03-04T03:52:48;99675.53;;;8.96;79.13
46946;BME280;32679;40.810;14.498;2023-03-04T03:55:13;99684.00;;;9.03;77.52
46946;BME280;32679;40.810;14.498;2023-03-04T03:57:39;99683.28;;;9.06;77.85
46946;BME280;32679;40.810;14.498;2023-03-04T04:00:05;99683.63;;;9.04;78.38
46946;BME280;32679;40.810;14.498;2023-03-04T04:02:31;99682.09;;;9.07;78.45
46946;BME280;32679;40.810;14.498;2023-03-04T04:04:57;99679.63;;;9.02;78.72
46946;BME280;32679;40.810;14.498;2023-03-04T04:07:22;99677.28;;;9.04;78.15
46946;BME280;32679;40.810;14.498;2023-03-04T04:09:48;99685.31;;;9.09;78.75
46946;BME280;32679;40.810;14.498;2023-03-04T04:12:14;99692.41;;;9.06;78.01
46946;BME280;32679;40.810;14.498;2023-03-04T04:14:41;99693.91;;;9.04;78.45
46946;BME280;32679;40.810;14.498;2023-03-04T04:17:07;99693.88;;;9.00;78.15
46946;BME280;32679;40.810;14.498;2023-03-04T04:19:32;99670.56;;;8.85;78.35
46946;BME280;32679;40.810;14.498;2023-03-04T04:21:58;99690.91;;;8.93;78.01
46946;BME280;32679;40.810;14.498;2023-03-04T04:24:24;99697.63;;;8.92;78.33
46946;BME280;32679;40.810;14.498;2023-03-04T04:26:49;99693.69;;;8.93;77.67
46946;BME280;32679;40.810;14.498;2023-03-04T04:29:15;99702.19;;;9.00;75.77
46946;BME280;32679;40.810;14.498;2023-03-04T04:31:41;99688.59;;;8.95;74.38
46946;BME280;32679;40.810;14.498;2023-03-04T04:34:06;99707.06;;;9.07;75.14
46946;BME280;32679;40.810;14.498;2023-03-04T04:36:32;99705.47;;;9.06;74.65
46946;BME280;32679;40.810;14.498;2023-03-04T04:38:57;99700.94;;;8.98;75.66
46946;BME280;32679;40.810;14.498;2023-03-04T04:41:27;99702.19;;;9.00;77.08
46946;BME280;32679;40.810;14.498;2023-03-04T04:43:54;99693.78;;;8.97;77.80
46946;BME280;32679;40.810;14.498;2023-03-04T04:46:20;99700.94;;;8.98;77.46
46946;BME280;32679;40.810;14.498;2023-03-04T04:48:45;99701.50;;;8.87;78.59
46946;BME280;32679;40.810;14.498;2023-03-04T04:51:11;99704.41;;;8.95;78.65
46946;BME280;32679;40.810;14.498;2023-03-04T04:53:37;99709.91;;;9.10;76.45
46946;BME280;32679;40.810;14.498;2023-03-04T04:56:18;99707.19;;;8.95;77.05
46946;BME280;32679;40.810;14.498;2023-03-04T04:58:44;99696.47;;;8.93;77.68
46946;BME280;32679;40.810;14.498;2023-03-04T05:01:10;99705.44;;;8.86;78.84
46946;BME280;32679;40.810;14.498;2023-03-04T05:03:36;99707.03;;;8.87;78.54
46946;BME280;32679;40.810;14.498;2023-03-04T05:06:04;99708.22;;;8.86;78.47
46946;BME280;32679;40.810;14.498;2023-03-04T05:08:30;99697.41;;;8.81;78.66
46946;BME280;32679;40.810;14.498;2023-03-04T05:10:56;99693.22;;;8.72;79.61
46946;BME280;32679;40.810;14.498;2023-03-04T05:13:22;99702.34;;;8.72;79.70
46946;BME280;32679;40.810;14.498;2023-03-04T05:15:50;99701.16;;;8.73;79.71
46946;BME280;32679;40.810;14.498;2023-03-04T05:18:16;99697.53;;;8.69;79.91
46946;BME280;32679;40.810;14.498;2023-03-04T05:20:41;99699.00;;;8.63;80.20
46946;BME280;32679;40.810;14.498;2023-03-04T05:23:06;99702.81;;;8.74;80.21
46946;BME280;32679;40.810;14.498;2023-03-04T05:25:32;99694.91;;;8.76;79.97
46946;BME280;32679;40.810;14.498;2023-03-04T05:27:57;99702.34;;;8.72;79.78
46946;BME280;32679;40.810;14.498;2023-03-04T05:30:25;99700.75;;;8.71;79.80
46946;BME280;32679;40.810;14.498;2023-03-04T05:32:51;99708.13;;;8.83;78.78
46946;BME280;32679;40.810;14.498;2023-03-04T05:35:16;99709.50;;;8.73;78.94
46946;BME280;32679;40.810;14.498;2023-03-04T05:37:42;99712.00;;;8.78;79.37
46946;BME280;32679;40.810;14.498;2023-03-04T05:40:08;99717.75;;;8.70;78.82
46946;BME280;32679;40.810;14.498;2023-03-04T05:42:34;99713.91;;;8.74;79.07
46946;BME280;32679;40.810;14.498;2023-03-04T05:44:59;99723.53;;;8.80;78.67
46946;BME280;32679;40.810;14.498;2023-03-04T05:47:24;99733.03;;;8.79;78.45
46946;BME280;32679;40.810;14.498;2023-03-04T05:49:50;99729.91;;;8.81;78.23
46946;BME280;32679;40.810;14.498;2023-03-04T05:52:15;99721.47;;;8.77;78.02
46946;BME280;32679;40.810;14.498;2023-03-04T05:54:41;99722.75;;;8.80;77.10
46946;BME280;32679;40.810;14.498;2023-03-04T05:57:06;99726.03;;;8.85;77.12
46946;BME280;32679;40.810;14.498;2023-03-04T05:59:32;99741.13;;;8.88;77.67
46946;BME280;32679;40.810;14.498;2023-03-04T06:01:57;99745.75;;;8.80;77.94
46946;BME280;32679;40.810;14.498;2023-03-04T06:04:23;99745.75;;;8.80;78.11
46946;BME280;32679;40.810;14.498;2023-03-04T06:06:48;99742.41;;;8.90;78.11
46946;BME280;32679;40.810;14.498;2023-03-04T06:09:14;99745.50;;;8.89;77.72
46946;BME280;32679;40.810;14.498;2023-03-04T06:11:39;99745.59;;;8.92;78.03
46946;BME280;32679;40.810;14.498;2023-03-04T06:14:05;99759.91;;;8.95;78.59
46946;BME280;32679;40.810;14.498;2023-03-04T06:16:30;99756.97;;;8.87;78.51
46946;BME280;32679;40.810;14.498;2023-03-04T06:18:56;99767.38;;;8.90;79.21
46946;BME280;32679;40.810;14.498;2023-03-04T06:21:24;99773.88;;;8.98;78.61
46946;BME280;32679;40.810;14.498;2023-03-04T06:23:49;99772.06;;;9.06;78.23
46946;BME280;32679;40.810;14.498;2023-03-04T06:26:15;99770.09;;;9.06;77.59
46946;BME280;32679;40.810;14.498;2023-03-04T06:28:44;99768.72;;;9.16;76.87
46946;BME280;32679;40.810;14.498;2023-03-04T06:31:11;99770.47;;;9.24;76.45
46946;BME280;32679;40.810;14.498;2023-03-04T06:33:37;99763.63;;;9.18;76.45
46946;BME280;32679;40.810;14.498;2023-03-04T06:36:02;99782.00;;;9.26;77.02
46946;BME280;32679;40.810;14.498;2023-03-04T06:38:28;99771.94;;;9.37;76.25
46946;BME280;32679;40.810;14.498;2023-03-04T06:40:53;99768.75;;;9.35;75.80
46946;BME280;32679;40.810;14.498;2023-03-04T06:43:19;99779.19;;;9.42;76.01
46946;BME280;32679;40.810;14.498;2023-03-04T06:45:45;99775.03;;;9.52;75.89
46946;BME280;32679;40.810;14.498;2023-03-04T06:48:11;99773.50;;;9.54;75.77
46946;BME280;32679;40.810;14.498;2023-03-04T06:50:38;99792.88;;;9.70;75.66
46946;BME280;32679;40.810;14.498;2023-03-04T06:53:04;99795.78;;;9.77;75.18
46946;BME280;32679;40.810;14.498;2023-03-04T06:55:29;99783.78;;;9.73;74.91
46946;BME280;32679;40.810;14.498;2023-03-04T06:57:54;99787.53;;;9.81;73.32
46946;BME280;32679;40.810;14.498;2023-03-04T07:00:20;99800.16;;;9.78;73.61
46946;BME280;32679;40.810;14.498;2023-03-04T07:02:48;99798.25;;;9.82;72.37
46946;BME280;32679;40.810;14.498;2023-03-04T07:05:13;99796.38;;;9.86;72.57
46946;BME280;32679;40.810;14.498;2023-03-04T07:07:39;99797.88;;;9.84;72.33
46946;BME280;32679;40.810;14.498;2023-03-04T07:10:05;99803.44;;;9.84;72.35
46946;BME280;32679;40.810;14.498;2023-03-04T07:12:30;99801.13;;;9.86;71.42
46946;BME280;32679;40.810;14.498;2023-03-04T07:14:56;99810.69;;;9.88;71.15
46946;BME280;32679;40.810;14.498;2023-03-04T07:17:24;99796.38;;;9.86;71.44
46946;BME280;32679;40.810;14.498;2023-03-04T07:19:52;99799.06;;;10.02;71.40
46946;BME280;32679;40.810;14.498;2023-03-04T07:22:17;99803.81;;;10.02;69.68
46946;BME280;32679;40.810;14.498;2023-03-04T07:24:43;99798.09;;;9.94;70.01
46946;BME280;32679;40.810;14.498;2023-03-04T07:27:08;99797.28;;;9.94;70.22
46946;BME280;32679;40.810;14.498;2023-03-04T07:29:34;99815.34;;;10.04;70.48
46946;BME280;32679;40.810;14.498;2023-03-04T07:32:01;99810.22;;;10.06;70.03
46946;BME280;32679;40.810;14.498;2023-03-04T07:34:27;99810.38;;;10.13;69.85
46946;BME280;32679;40.810;14.498;2023-03-04T07:36:52;99809.50;;;10.09;69.53
46946;BME280;32679;40.810;14.498;2023-03-04T07:39:18;99811.22;;;10.17;70.05
46946;BME280;32679;40.810;14.498;2023-03-04T07:41:43;99806.25;;;10.26;69.85
46946;BME280;32679;40.810;14.498;2023-03-04T07:44:10;99821.03;;;10.30;68.67
46946;BME280;32679;40.810;14.498;2023-03-04T07:46:36;99829.19;;;10.42;68.76
46946;BME280;32679;40.810;14.498;2023-03-04T07:49:02;99833.34;;;10.52;69.02
46946;BME280;32679;40.810;14.498;2023-03-04T07:51:27;99823.00;;;10.53;67.99
46946;BME280;32679;40.810;14.498;2023-03-04T07:53:57;99817.63;;;10.63;66.94
46946;BME280;32679;40.810;14.498;2023-03-04T07:56:25;99822.63;;;10.77;67.21
46946;BME280;32679;40.810;14.498;2023-03-04T07:58:51;99819.16;;;10.84;66.94
46946;BME280;32679;40.810;14.498;2023-03-04T08:01:32;99836.28;;;10.86;65.65
46946;BME280;32679;40.810;14.498;2023-03-04T08:03:57;99825.34;;;10.73;64.75
46946;BME280;32679;40.810;14.498;2023-03-04T08:06:24;99804.00;;;10.55;65.53
46946;BME280;32679;40.810;14.498;2023-03-04T08:08:57;99823.25;;;10.67;65.82
46946;BME280;32679;40.810;14.498;2023-03-04T08:11:23;99834.25;;;10.60;65.25
46946;BME280;32679;40.810;14.498;2023-03-04T08:13:49;99831.91;;;10.62;65.66
46946;BME280;32679;40.810;14.498;2023-03-04T08:16:16;99835.25;;;10.71;65.09
46946;BME280;32679;40.810;14.498;2023-03-04T08:18:47;99837.97;;;10.67;65.05
46946;BME280;32679;40.810;14.498;2023-03-04T08:21:17;99838.47;;;10.73;65.63
46946;BME280;32679;40.810;14.498;2023-03-04T08:23:44;99840.81;;;10.71;63.71
46946;BME280;32679;40.810;14.498;2023-03-04T08:26:31;99847.31;;;10.79;64.89
46946;BME280;32679;40.810;14.498;2023-03-04T08:28:59;99839.50;;;10.88;64.17
46946;BME280;32679;40.810;14.498;2023-03-04T08:31:25;99841.00;;;10.82;64.32
46946;BME280;32679;40.810;14.498;2023-03-04T08:33:51;99845.00;;;10.84;63.53
46946;BME280;32679;40.810;14.498;2023-03-04T08:36:17;99848.28;;;10.90;63.63
46946;BME280;32679;40.810;14.498;2023-03-04T08:38:45;99840.16;;;10.81;63.58
46946;BME280;32679;40.810;14.498;2023-03-04T08:41:11;99837.94;;;10.90;63.77
46946;BME280;32679;40.810;14.498;2023-03-04T08:43:37;99843.88;;;10.89;63.74
46946;BME280;32679;40.810;14.498;2023-03-04T08:46:03;99842.59;;;10.83;62.92
46946;BME280;32679;40.810;14.498;2023-03-04T08:48:28;99846.50;;;10.78;63.58
46946;BME280;32679;40.810;14.498;2023-03-04T08:50:54;99849.69;;;10.80;63.02
46946;BME280;32679;40.810;14.498;2023-03-04T08:53:20;99836.47;;;10.73;63.91
46946;BME280;32679;40.810;14.498;2023-03-04T08:55:46;99846.59;;;10.85;63.46
46946;BME280;32679;40.810;14.498;2023-03-04T08:58:12;99848.09;;;10.79;62.46
46946;BME280;32679;40.810;14.498;2023-03-04T09:00:41;99833.00;;;10.80;62.37
46946;BME280;32679;40.810;14.498;2023-03-04T09:03:08;99850.69;;;10.91;62.19
46946;BME280;32679;40.810;14.498;2023-03-04T09:05:34;99853.16;;;10.96;62.29
46946;BME280;32679;40.810;14.498;2023-03-04T09:08:00;99863.13;;;10.97;61.88
46946;BME280;32679;40.810;14.498;2023-03-04T09:10:26;99861.88;;;10.95;61.60
46946;BME280;32679;40.810;14.498;2023-03-04T09:12:51;99867.81;;;10.93;62.13
46946;BME280;32679;40.810;14.498;2023-03-04T09:15:17;99857.00;;;10.88;61.74
46946;BME280;32679;40.810;14.498;2023-03-04T09:17:42;99853.78;;;10.86;62.27
46946;BME280;32679;40.810;14.498;2023-03-04T09:20:09;99857.44;;;10.90;62.72
46946;BME280;32679;40.810;14.498;2023-03-04T09:22:36;99852.63;;;10.87;62.74
46946;BME280;32679;40.810;14.498;2023-03-04T09:25:03;99853.84;;;10.90;62.31
46946;BME280;32679;40.810;14.498;2023-03-04T09:27:28;99854.94;;;11.08;62.78
46946;BME280;32679;40.810;14.498;2023-03-04T09:29:54;99865.25;;;11.08;62.22
46946;BME280;32679;40.810;14.498;2023-03-04T09:32:19;99857.41;;;11.13;62.16
46946;BME280;32679;40.810;14.498;2023-03-04T09:34:45;99864.56;;;11.14;61.56
46946;BME280;32679;40.810;14.498;2023-03-04T09:37:10;99860.84;;;11.30;61.46
46946;BME280;32679;40.810;14.498;2023-03-04T09:39:38;99864.50;;;11.37;61.28
46946;BME280;32679;40.810;14.498;2023-03-04T09:42:05;99857.88;;;11.45;61.03
46946;BME280;32679;40.810;14.498;2023-03-04T09:44:38;99863.69;;;11.63;61.09
46946;BME280;32679;40.810;14.498;2023-03-04T09:47:09;99842.44;;;11.51;60.62
46946;BME280;32679;40.810;14.498;2023-03-04T09:49:37;99869.31;;;11.67;59.80
46946;BME280;32679;40.810;14.498;2023-03-04T09:55:23;99869.47;;;11.81;59.82
46946;BME280;32679;40.810;14.498;2023-03-04T10:01:30;99862.13;;;11.96;58.57
46946;BME280;32679;40.810;14.498;2023-03-04T10:04:15;99863.44;;;12.05;58.74
46946;BME280;32679;40.810;14.498;2023-03-04T10:06:42;99874.00;;;12.23;58.74
46946;BME280;32679;40.810;14.498;2023-03-04T10:09:21;99870.88;;;12.28;58.61
46946;BME280;32679;40.810;14.498;2023-03-04T10:11:58;99873.19;;;12.22;57.89
46946;BME280;32679;40.810;14.498;2023-03-04T10:14:39;99855.56;;;12.11;57.44
46946;BME280;32679;40.810;14.498;2023-03-04T10:17:33;99877.13;;;12.18;57.30
46946;BME280;32679;40.810;14.498;2023-03-04T10:22:47;99876.03;;;12.26;57.46
46946;BME280;32679;40.810;14.498;2023-03-04T10:25:20;99876.97;;;12.41;57.63
46946;BME280;32679;40.810;14.498;2023-03-04T10:27:51;99869.84;;;12.43;56.71
46946;BME280;32679;40.810;14.498;2023-03-04T10:33:24;99860.47;;;12.66;56.85
46946;BME280;32679;40.810;14.498;2023-03-04T10:36:09;99865.75;;;12.74;55.16
46946;BME280;32679;40.810;14.498;2023-03-04T10:38:43;99859.03;;;12.79;55.26
46946;BME280;32679;40.810;14.498;2023-03-04T10:41:19;99857.47;;;12.89;54.91
46946;BME280;32679;40.810;14.498;2023-03-04T10:46:41;99861.38;;;13.25;54.58
46946;BME280;32679;40.810;14.498;2023-03-04T10:49:09;99861.44;;;13.32;53.28
46946;BME280;32679;40.810;14.498;2023-03-04T10:51:43;99858.63;;;13.28;54.18
46946;BME280;32679;40.810;14.498;2023-03-04T10:54:21;99859.06;;;13.34;53.11
46946;BME280;32679;40.810;14.498;2023-03-04T10:57:02;99857.47;;;13.33;53.80
46946;BME280;32679;40.810;14.498;2023-03-04T11:02:00;99852.97;;;13.87;52.50
46946;BME280;32679;40.810;14.498;2023-03-04T11:04:32;99846.59;;;13.97;51.75
46946;BME280;32679;40.810;14.498;2023-03-04T11:06:58;99842.00;;;14.80;50.09
46946;BME280;32679;40.810;14.498;2023-03-04T11:09:27;99840.75;;;15.27;48.43
46946;BME280;32679;40.810;14.498;2023-03-04T11:12:00;99839.56;;;15.21;48.16
46946;BME280;32679;40.810;14.498;2023-03-04T11:16:57;99835.75;;;15.99;46.96
46946;BME280;32679;40.810;14.498;2023-03-04T11:19:31;99823.38;;;15.93;45.82
46946;BME280;32679;40.810;14.498;2023-03-04T11:22:00;99837.09;;;15.55;47.00
46946;BME280;32679;40.810;14.498;2023-03-04T11:24:27;99824.34;;;15.40;47.07
46946;BME280;32679;40.810;14.498;2023-03-04T11:27:21;99814.38;;;14.75;48.30
46946;BME280;32679;40.810;14.498;2023-03-04T11:29:59;99817.59;;;14.73;49.35
46946;BME280;32679;40.810;14.498;2023-03-04T11:32:30;99829.19;;;14.79;48.49
46946;BME280;32679;40.810;14.498;2023-03-04T11:37:34;99824.28;;;14.19;49.74
46946;BME280;32679;40.810;14.498;2023-03-04T11:40:03;99833.81;;;13.96;50.21
46946;BME280;32679;40.810;14.498;2023-03-04T11:42:54;99820.34;;;14.41;50.32
46946;BME280;32679;40.810;14.498;2023-03-04T11:50:49;99811.94;;;14.34;51.24
46946;BME280;32679;40.810;14.498;2023-03-04T11:53:24;99802.66;;;13.98;51.67
46946;BME280;32679;40.810;14.498;2023-03-04T12:02:22;99790.44;;;13.40;52.94
46946;BME280;32679;40.810;14.498;2023-03-04T12:05:33;99788.38;;;13.30;54.22
46946;BME280;32679;40.810;14.498;2023-03-04T12:11:22;99786.22;;;13.09;55.46
46946;BME280;32679;40.810;14.498;2023-03-04T12:14:25;99787.97;;;13.31;54.01
46946;BME280;32679;40.810;14.498;2023-03-04T12:20:34;99771.63;;;13.30;54.72
46946;BME280;32679;40.810;14.498;2023-03-04T12:26:21;99765.00;;;13.74;53.83
46946;BME280;32679;40.810;14.498;2023-03-04T12:31:45;99759.38;;;13.59;54.34
46946;BME280;32679;40.810;14.498;2023-03-04T12:34:40;99758.59;;;13.59;53.30
46946;BME280;32679;40.810;14.498;2023-03-04T12:45:46;99759.03;;;12.95;55.06
46946;BME280;32679;40.810;14.498;2023-03-04T12:50:58;99767.19;;;12.67;54.09
46946;BME280;32679;40.810;14.498;2023-03-04T12:59:15;99759.84;;;13.03;53.62
46946;BME280;32679;40.810;14.498;2023-03-04T13:02:10;99769.59;;;13.23;53.59
46946;BME280;32679;40.810;14.498;2023-03-04T13:10:20;99761.91;;;13.13;51.94
46946;BME280;32679;40.810;14.498;2023-03-04T13:12:51;99771.22;;;13.28;51.45
46946;BME280;32679;40.810;14.498;2023-03-04T13:15:36;99774.44;;;13.33;51.89
46946;BME280;32679;40.810;14.498;2023-03-04T13:20:45;99757.75;;;13.48;50.72
46946;BME280;32679;40.810;14.498;2023-03-04T13:23:28;99764.53;;;13.50;51.04
46946;BME280;32679;40.810;14.498;2023-03-04T13:28:27;99770.22;;;13.02;50.19
46946;BME280;32679;40.810;14.498;2023-03-04T13:43:44;99766.72;;;12.57;50.80
46946;BME280;32679;40.810;14.498;2023-03-04T13:51:37;99739.38;;;12.26;52.11
46946;BME280;32679;40.810;14.498;2023-03-04T13:54:20;99758.22;;;12.43;51.60
46946;BME280;32679;40.810;14.498;2023-03-04T13:59:32;99759.00;;;12.40;51.68
46946;BME280;32679;40.810;14.498;2023-03-04T14:04:39;99752.25;;;12.41;50.30
46946;BME280;32679;40.810;14.498;2023-03-04T14:10:00;99757.16;;;12.58;50.90
46946;BME280;32679;40.810;14.498;2023-03-04T14:12:30;99735.69;;;12.63;51.06
46946;BME280;32679;40.810;14.498;2023-03-04T14:15:02;99742.03;;;12.59;51.10
46946;BME280;32679;40.810;14.498;2023-03-04T14:17:32;99738.47;;;12.63;50.72
46946;BME280;32679;40.810;14.498;2023-03-04T14:20:01;99738.09;;;12.68;51.20
46946;BME280;32679;40.810;14.498;2023-03-04T14:22:37;99736.47;;;12.67;51.14
46946;BME280;32679;40.810;14.498;2023-03-04T14:25:19;99745.28;;;12.69;50.66
46946;BME280;32679;40.810;14.498;2023-03-04T14:27:46;99741.38;;;12.80;50.73
46946;BME280;32679;40.810;14.498;2023-03-04T14:32:43;99742.06;;;12.67;50.11
46946;BME280;32679;40.810;14.498;2023-03-04T14:35:21;99735.19;;;12.53;50.02
46946;BME280;32679;40.810;14.498;2023-03-04T14:40:21;99738.91;;;12.72;50.78
46946;BME280;32679;40.810;14.498;2023-03-04T14:42:52;99736.56;;;12.74;50.33
46946;BME280;32679;40.810;14.498;2023-03-04T14:45:20;99738.91;;;12.72;50.64
46946;BME280;32679;40.810;14.498;2023-03-04T14:47:47;99737.25;;;12.60;50.74
46946;BME280;32679;40.810;14.498;2023-03-04T14:50:18;99724.44;;;12.55;50.74